createdAt,value
2022-08-23T00:00:34.135Z,99.90
2022-08-23T00:03:05.943Z,99.90
2022-08-23T00:05:39.511Z,99.90
2022-08-23T00:08:11.424Z,99.90
2022-08-23T00:10:43.155Z,99.90
2022-08-23T00:13:14.864Z,99.90
2022-08-23T00:15:46.711Z,99.90
2022-08-23T00:18:18.558Z,99.90
2022-08-23T00:20:51.037Z,99.90
2022-08-23T00:23:22.810Z,99.90
2022-08-23T00:25:54.506Z,99.90
2022-08-23T00:28:26.283Z,99.90
2022-08-23T00:30:58.734Z,99.90
2022-08-23T00:33:30.491Z,99.90
2022-08-23T00:36:02.339Z,99.90
2022-08-23T00:38:35.246Z,99.90
2022-08-23T00:41:07.031Z,99.90
2022-08-23T00:44:00.160Z,99.90
2022-08-23T00:46:58.800Z,99.90
2022-08-23T00:49:33.338Z,99.90
2022-08-23T00:52:14.180Z,99.90
2022-08-23T00:54:47.062Z,99.90
2022-08-23T00:57:19.663Z,99.90
2022-08-23T00:59:51.395Z,99.90
2022-08-23T01:02:23.294Z,99.90
2022-08-23T01:04:58.969Z,99.90
2022-08-23T01:07:33.716Z,99.90
2022-08-23T01:10:18.160Z,99.90
2022-08-23T01:13:14.875Z,99.90
2022-08-23T01:15:50.723Z,99.90
2022-08-23T01:18:26.155Z,99.90
2022-08-23T01:21:19.754Z,99.90
2022-08-23T01:23:57.793Z,99.90
2022-08-23T01:26:35.056Z,99.90
2022-08-23T01:29:08.012Z,99.90
2022-08-23T01:31:40.026Z,99.90
2022-08-23T01:34:16.253Z,99.90
2022-08-23T01:36:48.207Z,99.90
2022-08-23T01:39:20.008Z,99.90
2022-08-23T01:41:51.767Z,99.90
2022-08-23T01:44:23.706Z,99.90
2022-08-23T01:46:59.388Z,99.90
2022-08-23T01:49:31.139Z,99.90
2022-08-23T01:52:03.239Z,99.90
2022-08-23T01:54:35.072Z,99.90
2022-08-23T01:57:07.555Z,99.90
2022-08-23T01:59:39.377Z,99.90
2022-08-23T02:02:11.407Z,99.90
2022-08-23T02:04:43.117Z,99.90
2022-08-23T02:07:14.986Z,99.90
2022-08-23T02:09:46.827Z,99.90
2022-08-23T02:12:18.624Z,99.90
2022-08-23T02:14:50.494Z,99.90
2022-08-23T02:17:22.600Z,99.90
2022-08-23T02:19:55.383Z,99.90
2022-08-23T02:22:27.098Z,99.90
2022-08-23T02:24:59.010Z,99.90
2022-08-23T02:27:30.878Z,99.90
2022-08-23T02:30:04.082Z,99.90
2022-08-23T02:32:36.874Z,99.90
2022-08-23T02:35:09.208Z,99.90
2022-08-23T02:37:41.026Z,99.90
2022-08-23T02:40:12.930Z,99.90
2022-08-23T02:42:44.762Z,99.90
2022-08-23T02:45:17.258Z,99.90
2022-08-23T02:47:48.954Z,99.90
2022-08-23T02:50:21.431Z,99.90
2022-08-23T02:52:54.921Z,99.90
2022-08-23T02:55:27.185Z,99.90
2022-08-23T02:57:59.224Z,99.90
2022-08-23T03:00:31.482Z,99.90
2022-08-23T03:03:03.275Z,99.90
2022-08-23T03:05:35.110Z,99.90
2022-08-23T03:08:08.193Z,99.90
2022-08-23T03:10:48.304Z,99.90
2022-08-23T03:13:20.786Z,99.90
2022-08-23T03:15:52.559Z,99.90
2022-08-23T03:18:24.358Z,99.90
2022-08-23T03:20:56.080Z,99.90
2022-08-23T03:23:28.646Z,99.90
2022-08-23T03:26:02.836Z,99.90
2022-08-23T03:28:36.199Z,99.90
2022-08-23T03:31:09.753Z,99.90
2022-08-23T03:33:41.829Z,99.90
2022-08-23T03:36:13.824Z,99.90
2022-08-23T03:38:45.681Z,99.90
2022-08-23T03:41:17.726Z,99.90
2022-08-23T03:43:50.539Z,99.90
2022-08-23T03:46:25.555Z,99.90
2022-08-23T03:48:59.708Z,99.90
2022-08-23T03:51:34.354Z,99.90
2022-08-23T03:54:06.691Z,99.90
2022-08-23T03:56:49.339Z,99.90
2022-08-23T03:59:21.658Z,99.90
2022-08-23T04:01:53.857Z,99.90
2022-08-23T04:04:25.682Z,99.90
2022-08-23T04:06:57.426Z,99.90
2022-08-23T04:09:29.519Z,99.90
2022-08-23T04:12:01.351Z,99.90
2022-08-23T04:14:33.431Z,99.90
2022-08-23T04:17:05.660Z,99.90
2022-08-23T04:19:37.393Z,99.90
2022-08-23T04:22:15.088Z,99.90
2022-08-23T04:24:47.685Z,99.90
2022-08-23T04:27:19.458Z,99.90
2022-08-23T04:29:51.222Z,99.90
2022-08-23T04:32:28.186Z,99.90
2022-08-23T04:35:00.305Z,99.90
2022-08-23T04:37:32.155Z,99.90
2022-08-23T04:40:23.434Z,99.90
2022-08-23T04:42:55.287Z,99.90
2022-08-23T04:45:27.328Z,99.90
2022-08-23T04:47:59.250Z,99.90
2022-08-23T04:50:31.230Z,99.90
2022-08-23T04:53:04.181Z,99.90
2022-08-23T04:55:36.770Z,99.90
2022-08-23T04:58:10.267Z,99.90
2022-08-23T05:00:42.009Z,99.90
2022-08-23T05:03:13.878Z,99.90
2022-08-23T05:05:45.662Z,99.90
2022-08-23T05:08:18.198Z,99.90
2022-08-23T05:10:49.961Z,99.90
2022-08-23T05:13:22.036Z,99.90
2022-08-23T05:15:54.138Z,99.90
2022-08-23T05:18:27.087Z,99.90
2022-08-23T05:20:59.027Z,99.90
2022-08-23T05:23:32.082Z,99.90
2022-08-23T05:26:04.496Z,99.90
2022-08-23T05:28:38.550Z,99.90
2022-08-23T05:31:17.719Z,99.90
2022-08-23T05:33:50.488Z,99.90
2022-08-23T05:36:22.835Z,99.90
2022-08-23T05:38:54.640Z,99.90
2022-08-23T05:41:37.705Z,99.90
2022-08-23T05:44:10.519Z,99.90
2022-08-23T05:46:45.303Z,99.90
2022-08-23T05:49:19.022Z,99.90
2022-08-23T05:51:52.967Z,99.90
2022-08-23T05:54:24.873Z,99.90
2022-08-23T05:56:56.657Z,99.90
2022-08-23T05:59:29.006Z,99.90
2022-08-23T06:02:00.923Z,99.90
2022-08-23T06:04:33.118Z,99.90
2022-08-23T06:07:06.595Z,99.90
2022-08-23T06:09:38.363Z,99.90
2022-08-23T06:12:10.212Z,99.90
2022-08-23T06:14:41.942Z,99.90
2022-08-23T06:17:13.707Z,99.90
2022-08-23T06:19:45.398Z,99.90
2022-08-23T06:22:17.391Z,99.90
2022-08-23T06:24:49.449Z,99.90
2022-08-23T06:27:21.518Z,99.90
2022-08-23T06:29:53.406Z,99.90
2022-08-23T06:32:25.311Z,99.90
2022-08-23T06:35:29.937Z,99.90
2022-08-23T06:37:48.836Z,99.90
2022-08-23T06:40:20.703Z,99.90
2022-08-23T06:42:53.816Z,99.90
2022-08-23T06:45:32.383Z,99.90
2022-08-23T06:48:09.619Z,99.90
2022-08-23T06:50:41.667Z,99.90
2022-08-23T06:53:19.759Z,99.90
2022-08-23T06:55:52.140Z,99.90
2022-08-23T06:58:23.986Z,99.90
2022-08-23T07:00:57.648Z,99.90
2022-08-23T07:03:29.592Z,99.90
2022-08-23T07:06:08.372Z,99.90
2022-08-23T07:08:40.290Z,99.90
2022-08-23T07:11:12.236Z,99.90
2022-08-23T07:13:44.208Z,99.90
2022-08-23T07:16:18.267Z,99.90
2022-08-23T07:18:50.045Z,99.90
2022-08-23T07:21:21.834Z,99.90
2022-08-23T07:23:53.892Z,99.90
2022-08-23T07:26:25.842Z,99.90
2022-08-23T07:28:59.326Z,99.90
2022-08-23T07:31:33.435Z,99.90
2022-08-23T07:34:06.587Z,99.90
2022-08-23T07:36:42.101Z,99.90
2022-08-23T07:39:14.437Z,99.90
2022-08-23T07:41:46.956Z,99.90
2022-08-23T07:44:24.975Z,99.90
2022-08-23T07:46:59.263Z,99.90
2022-08-23T07:49:32.718Z,99.90
2022-08-23T07:52:04.810Z,99.90
2022-08-23T07:54:36.739Z,99.90
2022-08-23T07:57:08.544Z,99.90
2022-08-23T07:59:40.714Z,99.90
2022-08-23T08:02:12.609Z,99.90
2022-08-23T08:04:44.489Z,99.90
2022-08-23T08:07:21.110Z,99.90
2022-08-23T08:09:53.741Z,99.90
2022-08-23T08:12:29.144Z,99.90
2022-08-23T08:15:01.419Z,99.90
2022-08-23T08:17:33.661Z,99.90
2022-08-23T08:20:06.056Z,99.90
2022-08-23T08:22:37.923Z,99.90
2022-08-23T08:25:11.123Z,99.90
2022-08-23T08:27:43.058Z,99.90
2022-08-23T08:30:15.013Z,99.90
2022-08-23T08:32:47.572Z,99.90
2022-08-23T08:35:19.435Z,99.90
2022-08-23T08:37:51.409Z,99.90
2022-08-23T08:40:31.693Z,99.90
2022-08-23T08:43:34.139Z,99.90
2022-08-23T08:46:18.485Z,99.90
2022-08-23T08:48:55.372Z,99.90
2022-08-23T08:51:42.457Z,99.90
2022-08-23T08:54:18.374Z,99.30
2022-08-23T08:56:54.110Z,99.70
2022-08-23T08:59:51.940Z,99.90
2022-08-23T09:02:33.938Z,97.50
2022-08-23T09:05:34.300Z,98.50
2022-08-23T09:08:49.574Z,96.40
2022-08-23T09:11:40.604Z,95.80
2022-08-23T09:14:32.563Z,95.40
2022-08-23T09:17:26.618Z,94.90
2022-08-23T09:20:02.175Z,94.60
2022-08-23T09:22:45.914Z,91.20
2022-08-23T09:25:18.526Z,87.00
2022-08-23T09:27:50.274Z,82.70
2022-08-23T09:30:22.206Z,74.50
2022-08-23T09:32:55.966Z,72.00
2022-08-23T09:35:27.731Z,69.60
2022-08-23T09:38:04.378Z,68.50
2022-08-23T09:40:45.269Z,66.10
2022-08-23T09:43:22.029Z,62.50
2022-08-23T09:45:56.668Z,60.10
2022-08-23T09:48:41.528Z,60.20
2022-08-23T09:51:25.148Z,58.40
2022-08-23T09:54:11.514Z,57.70
2022-08-23T09:56:50.074Z,57.10
2022-08-23T09:59:27.332Z,55.70
2022-08-23T10:02:02.042Z,56.90
2022-08-23T10:04:37.191Z,56.20
2022-08-23T10:07:29.353Z,54.50
2022-08-23T10:10:24.543Z,54.30
2022-08-23T10:12:59.043Z,54.70
2022-08-23T10:15:40.548Z,54.70
2022-08-23T10:18:25.147Z,53.60
2022-08-23T10:21:10.819Z,52.70
2022-08-23T10:24:07.849Z,52.40
2022-08-23T10:26:46.162Z,52.30
2022-08-23T10:29:37.340Z,52.30
2022-08-23T10:32:18.191Z,52.20
2022-08-23T10:34:59.072Z,51.20
2022-08-23T10:37:49.230Z,50.40
2022-08-23T10:40:36.113Z,52.00
2022-08-23T10:43:32.003Z,50.20
2022-08-23T10:46:07.394Z,52.70
2022-08-23T10:49:00.322Z,52.50
2022-08-23T10:51:40.537Z,51.30
2022-08-23T10:54:34.550Z,51.00
2022-08-23T10:57:06.611Z,51.00
2022-08-23T10:59:38.979Z,50.60
2022-08-23T11:02:29.291Z,50.50
2022-08-23T11:05:03.992Z,50.00
2022-08-23T11:07:41.196Z,50.70
2022-08-23T11:10:17.566Z,49.80
2022-08-23T11:13:00.315Z,49.80
2022-08-23T11:15:47.266Z,49.50
2022-08-23T11:18:34.381Z,49.80
2022-08-23T11:21:08.328Z,49.70
2022-08-23T11:24:15.567Z,49.30
2022-08-23T11:26:47.250Z,48.80
2022-08-23T11:29:24.688Z,49.40
2022-08-23T11:32:15.464Z,49.90
2022-08-23T11:35:05.275Z,52.60
2022-08-23T11:38:03.936Z,54.40
2022-08-23T11:40:40.724Z,54.90
2022-08-23T11:43:32.081Z,54.80
2022-08-23T11:46:27.423Z,55.50
2022-08-23T11:49:21.976Z,55.40
2022-08-23T11:52:18.625Z,55.40
2022-08-23T11:55:09.214Z,56.00
2022-08-23T11:57:55.983Z,56.00
2022-08-23T12:00:52.437Z,57.90
2022-08-23T12:03:33.875Z,57.10
2022-08-23T12:06:29.768Z,57.70
2022-08-23T12:09:24.018Z,58.00
2022-08-23T12:11:55.796Z,58.50
2022-08-23T12:14:50.325Z,58.80
2022-08-23T12:17:28.661Z,57.80
2022-08-23T12:20:16.514Z,58.30
2022-08-23T12:22:59.836Z,58.60
2022-08-23T12:25:32.210Z,59.60
2022-08-23T12:28:29.882Z,59.20
2022-08-23T12:31:19.823Z,58.80
2022-08-23T12:34:05.593Z,60.20
2022-08-23T12:37:09.447Z,59.80
2022-08-23T12:39:51.358Z,58.90
2022-08-23T12:42:33.711Z,59.80
2022-08-23T12:45:20.045Z,58.50
2022-08-23T12:48:02.636Z,59.20
2022-08-23T12:50:40.985Z,59.40
2022-08-23T12:53:25.699Z,57.90
2022-08-23T12:56:11.122Z,58.90
2022-08-23T12:58:52.180Z,59.30
2022-08-23T13:01:33.913Z,58.10
2022-08-23T13:04:13.195Z,58.20
2022-08-23T13:06:50.603Z,57.80
2022-08-23T13:09:38.564Z,57.60
2022-08-23T13:12:11.121Z,57.80
2022-08-23T13:14:51.508Z,58.40
2022-08-23T13:17:26.292Z,58.70
2022-08-23T13:20:06.904Z,58.40
2022-08-23T13:22:54.271Z,59.00
2022-08-23T13:25:34.761Z,59.30
2022-08-23T13:28:21.727Z,59.80
2022-08-23T13:31:19.720Z,60.70
2022-08-23T13:33:54.353Z,59.80
2022-08-23T13:36:26.146Z,59.80
2022-08-23T13:39:05.507Z,59.80
2022-08-23T13:41:38.547Z,58.80
2022-08-23T13:44:12.080Z,59.90
2022-08-23T13:46:48.199Z,60.30
2022-08-23T13:49:22.114Z,59.80
2022-08-23T13:52:11.961Z,60.10
2022-08-23T13:54:53.067Z,61.40
2022-08-23T13:57:29.578Z,61.40
2022-08-23T14:00:02.364Z,60.60
2022-08-23T14:02:34.196Z,60.80
2022-08-23T14:05:09.612Z,61.00
2022-08-23T14:07:41.434Z,60.70
2022-08-23T14:10:14.374Z,61.40
2022-08-23T14:12:47.452Z,60.80
2022-08-23T14:15:19.898Z,62.40
2022-08-23T14:17:53.958Z,61.70
2022-08-23T14:20:43.463Z,61.60
2022-08-23T14:23:15.703Z,61.50
2022-08-23T14:25:51.148Z,62.60
2022-08-23T14:28:26.415Z,62.90
2022-08-23T14:31:02.609Z,64.20
2022-08-23T14:33:34.514Z,64.30
2022-08-23T14:36:07.065Z,63.80
2022-08-23T14:38:39.577Z,63.50
2022-08-23T14:41:16.959Z,63.40
2022-08-23T14:43:50.412Z,63.90
2022-08-23T14:46:23.429Z,64.20
2022-08-23T14:48:55.241Z,65.30
2022-08-23T14:51:26.982Z,63.90
2022-08-23T14:54:00.126Z,64.50
2022-08-23T14:56:32.931Z,64.30
2022-08-23T14:59:04.795Z,64.40
2022-08-23T15:01:37.774Z,63.50
2022-08-23T15:04:09.717Z,63.50
2022-08-23T15:07:00.378Z,64.20
2022-08-23T15:09:34.274Z,64.30
2022-08-23T15:12:58.507Z,64.70
2022-08-23T15:14:58.463Z,64.20
2022-08-23T15:17:31.708Z,64.60
2022-08-23T15:20:04.886Z,65.60
2022-08-23T15:22:44.478Z,65.50
2022-08-23T15:25:17.910Z,66.50
2022-08-23T15:27:51.016Z,66.20
2022-08-23T15:30:23.967Z,66.50
2022-08-23T15:32:56.540Z,66.00
2022-08-23T15:35:39.843Z,67.00
2022-08-23T15:38:14.823Z,67.50
2022-08-23T15:40:46.547Z,68.00
2022-08-23T15:43:19.418Z,68.20
2022-08-23T15:45:51.454Z,67.90
2022-08-23T15:48:32.167Z,67.70
2022-08-23T15:51:06.022Z,67.60
2022-08-23T15:53:39.605Z,67.40
2022-08-23T15:56:16.275Z,67.20
2022-08-23T15:58:48.907Z,67.50
2022-08-23T16:01:24.680Z,67.70
2022-08-23T16:03:56.598Z,67.90
2022-08-23T16:06:32.133Z,68.40
2022-08-23T16:09:11.735Z,67.80
2022-08-23T16:11:46.336Z,68.90
2022-08-23T16:14:18.456Z,68.90
2022-08-23T16:16:50.329Z,69.00
2022-08-23T16:19:22.110Z,68.80
2022-08-23T16:21:54.225Z,69.20
2022-08-23T16:24:27.765Z,69.50
2022-08-23T16:26:59.587Z,69.00
2022-08-23T16:29:34.643Z,69.70
2022-08-23T16:32:07.494Z,69.30
2022-08-23T16:34:39.388Z,69.70
2022-08-23T16:37:11.395Z,69.70
2022-08-23T16:39:44.969Z,70.00
2022-08-23T16:42:18.111Z,70.30
2022-08-23T16:44:50.057Z,69.70
2022-08-23T16:47:22.420Z,70.40
2022-08-23T16:49:56.054Z,69.80
2022-08-23T16:52:34.368Z,70.30
2022-08-23T16:55:09.769Z,70.30
2022-08-23T16:57:41.831Z,70.80
2022-08-23T17:00:14.793Z,71.10
2022-08-23T17:02:47.064Z,70.40
2022-08-23T17:05:19.647Z,71.10
2022-08-23T17:07:54.077Z,70.80
2022-08-23T17:10:26.127Z,71.10
2022-08-23T17:12:58.130Z,71.40
2022-08-23T17:15:33.908Z,71.20
2022-08-23T17:18:06.294Z,71.90
2022-08-23T17:20:39.302Z,71.90
2022-08-23T17:23:11.475Z,72.40
2022-08-23T17:25:47.637Z,72.60
2022-08-23T17:28:19.508Z,75.70
2022-08-23T17:30:51.307Z,77.70
2022-08-23T17:33:23.181Z,81.10
2022-08-23T17:35:54.949Z,82.10
2022-08-23T17:38:26.707Z,83.00
2022-08-23T17:40:59.000Z,84.10
2022-08-23T17:43:30.759Z,84.20
2022-08-23T17:46:02.599Z,84.80
2022-08-23T17:48:34.487Z,86.40
2022-08-23T17:51:06.313Z,86.50
2022-08-23T17:53:38.178Z,86.90
2022-08-23T17:56:12.416Z,87.50
2022-08-23T17:58:44.359Z,87.80
2022-08-23T18:01:16.349Z,88.10
2022-08-23T18:03:49.176Z,89.40
2022-08-23T18:06:22.012Z,88.90
2022-08-23T18:08:55.298Z,89.20
2022-08-23T18:11:27.150Z,89.60
2022-08-23T18:13:59.190Z,90.00
2022-08-23T18:16:35.285Z,90.20
2022-08-23T18:19:11.139Z,90.30
2022-08-23T18:21:44.814Z,90.80
2022-08-23T18:24:17.799Z,90.60
2022-08-23T18:27:08.399Z,90.90
2022-08-23T18:29:40.216Z,90.90
2022-08-23T18:32:14.694Z,91.20
2022-08-23T18:34:46.579Z,91.30
2022-08-23T18:37:21.583Z,91.60
2022-08-23T18:39:53.551Z,91.50
2022-08-23T18:42:26.103Z,91.80
2022-08-23T18:44:57.847Z,91.80
2022-08-23T18:47:30.226Z,92.00
2022-08-23T18:50:02.218Z,92.00
2022-08-23T18:52:34.162Z,92.10
2022-08-23T18:55:06.681Z,92.40
2022-08-23T18:57:39.014Z,92.50
2022-08-23T19:00:11.387Z,92.70
2022-08-23T19:02:43.154Z,93.10
2022-08-23T19:05:15.146Z,93.30
2022-08-23T19:07:47.035Z,93.40
2022-08-23T19:10:20.626Z,93.60
2022-08-23T19:12:54.500Z,93.70
2022-08-23T19:15:29.354Z,94.00
2022-08-23T19:18:01.962Z,94.20
2022-08-23T19:20:33.802Z,94.30
2022-08-23T19:23:05.642Z,94.40
2022-08-23T19:25:38.576Z,94.50
2022-08-23T19:28:10.968Z,94.60
2022-08-23T19:30:43.987Z,94.80
2022-08-23T19:33:16.461Z,94.90
2022-08-23T19:35:48.749Z,95.00
2022-08-23T19:38:22.920Z,95.30
2022-08-23T19:40:57.912Z,95.50
2022-08-23T19:43:29.761Z,95.70
2022-08-23T19:46:14.028Z,95.90
2022-08-23T19:48:47.418Z,96.40
2022-08-23T19:51:20.523Z,96.20
2022-08-23T19:54:04.696Z,96.40
2022-08-23T19:56:43.555Z,96.60
2022-08-23T19:59:22.854Z,96.80
2022-08-23T20:01:55.605Z,97.10
2022-08-23T20:04:29.701Z,97.30
2022-08-23T20:07:03.496Z,97.40
2022-08-23T20:09:35.712Z,97.70
2022-08-23T20:12:07.843Z,97.90
2022-08-23T20:14:39.584Z,98.20
2022-08-23T20:17:11.518Z,98.90
2022-08-23T20:19:43.507Z,98.90
2022-08-23T20:22:34.079Z,98.80
2022-08-23T20:25:07.585Z,99.50
2022-08-23T20:27:39.368Z,99.40
2022-08-23T20:30:13.066Z,99.60
2022-08-23T20:32:44.802Z,99.70
2022-08-23T20:35:16.530Z,99.90
2022-08-23T20:37:48.455Z,99.90
2022-08-23T20:40:21.693Z,99.90
2022-08-23T20:42:53.679Z,99.90
2022-08-23T20:45:25.527Z,99.90
2022-08-23T20:47:57.424Z,99.90
2022-08-23T20:50:29.372Z,99.90
2022-08-23T20:53:01.372Z,99.90
2022-08-23T20:55:33.394Z,99.90
2022-08-23T20:58:05.535Z,99.90
2022-08-23T21:00:37.314Z,99.90
2022-08-23T21:03:09.374Z,99.90
2022-08-23T21:05:41.162Z,99.90
2022-08-23T21:08:15.021Z,99.90
2022-08-23T21:10:46.791Z,99.90
2022-08-23T21:13:19.370Z,99.90
2022-08-23T21:15:51.303Z,99.90
2022-08-23T21:18:23.127Z,99.90
2022-08-23T21:20:54.927Z,99.90
2022-08-23T21:23:27.207Z,99.90
2022-08-23T21:25:59.163Z,99.90
2022-08-23T21:28:30.948Z,99.90
2022-08-23T21:31:07.588Z,99.90
2022-08-23T21:33:40.563Z,99.90
2022-08-23T21:36:13.864Z,99.90
2022-08-23T21:38:46.163Z,99.90
2022-08-23T21:41:37.590Z,99.90
2022-08-23T21:44:17.870Z,99.90
2022-08-23T21:46:49.692Z,99.90
2022-08-23T21:49:21.568Z,99.90
2022-08-23T21:51:54.336Z,99.90
2022-08-23T21:54:26.209Z,99.90
2022-08-23T21:56:58.052Z,99.90
2022-08-23T21:59:29.853Z,99.90
2022-08-23T22:02:01.814Z,99.90
2022-08-23T22:04:33.655Z,99.90
2022-08-23T22:07:05.444Z,99.90
2022-08-23T22:09:37.239Z,99.90
2022-08-23T22:12:09.578Z,99.90
2022-08-23T22:14:41.350Z,99.90
2022-08-23T22:17:15.063Z,99.90
2022-08-23T22:19:46.823Z,99.90
2022-08-23T22:22:18.955Z,99.90
2022-08-23T22:24:51.187Z,99.90
2022-08-23T22:27:22.983Z,99.90
2022-08-23T22:29:55.398Z,99.90
2022-08-23T22:32:27.163Z,99.90
2022-08-23T22:34:58.996Z,99.90
2022-08-23T22:37:30.826Z,99.90
2022-08-23T22:40:03.522Z,99.90
2022-08-23T22:42:35.972Z,99.90
2022-08-23T22:45:08.814Z,99.90
2022-08-23T22:47:40.652Z,99.90
2022-08-23T22:50:12.671Z,99.90
2022-08-23T22:52:44.460Z,99.90
2022-08-23T22:55:16.299Z,99.90
2022-08-23T22:57:48.120Z,99.90
2022-08-23T23:00:20.057Z,99.90
2022-08-23T23:02:52.807Z,99.90
2022-08-23T23:05:24.607Z,99.90
2022-08-23T23:08:14.715Z,99.90
2022-08-23T23:10:46.498Z,99.90
2022-08-23T23:13:18.281Z,99.90
2022-08-23T23:15:50.980Z,99.90
2022-08-23T23:18:24.155Z,99.90
2022-08-23T23:21:00.996Z,99.90
2022-08-23T23:23:34.933Z,99.90
2022-08-23T23:26:08.505Z,99.90
2022-08-23T23:28:41.500Z,99.90
2022-08-23T23:31:13.396Z,99.90
2022-08-23T23:33:45.385Z,99.90
2022-08-23T23:36:17.570Z,99.90
2022-08-23T23:38:49.483Z,99.90
2022-08-23T23:41:21.268Z,99.90
2022-08-23T23:43:53.004Z,99.90
2022-08-23T23:46:25.457Z,99.90
2022-08-23T23:48:57.247Z,99.90
2022-08-23T23:51:30.556Z,99.90
2022-08-23T23:54:02.698Z,99.90
2022-08-23T23:56:39.091Z,99.90
2022-08-23T23:59:10.880Z,99.90
